sensor_id;sensor_type;location;lat;lon;timestamp;temperature;humidity
66035;HTU21D;52805;51.074;5.842;2023-02-15T00:00:22;4.93;77.59
66035;HTU21D;52805;51.074;5.842;2023-02-15T00:02:47;4.87;77.73
66035;HTU21D;52805;51.074;5.842;2023-02-15T00:05:13;4.81;77.92
66035;HTU21D;52805;51.074;5.842;2023-02-15T00:07:39;4.80;77.91
66035;HTU21D;52805;51.074;5.842;2023-02-15T00:10:05;4.80;77.60
66035;HTU21D;52805;51.074;5.842;2023-02-15T00:12:31;4.79;77.62
66035;HTU21D;52805;51.074;5.842;2023-02-15T00:14:57;4.75;77.79
66035;HTU21D;52805;51.074;5.842;2023-02-15T00:17:23;4.73;77.88
66035;HTU21D;52805;51.074;5.842;2023-02-15T00:19:49;4.74;77.79
66035;HTU21D;52805;51.074;5.842;2023-02-15T00:22:15;4.68;77.80
66035;HTU21D;52805;51.074;5.842;2023-02-15T00:24:40;4.66;77.89
66035;HTU21D;52805;51.074;5.842;2023-02-15T00:27:06;4.64;77.84
66035;HTU21D;52805;51.074;5.842;2023-02-15T00:29:32;4.65;77.88
66035;HTU21D;52805;51.074;5.842;2023-02-15T00:31:57;4.63;77.92
66035;HTU21D;52805;51.074;5.842;2023-02-15T00:34:25;4.64;77.86
66035;HTU21D;52805;51.074;5.842;2023-02-15T00:36:52;4.58;77.97
66035;HTU21D;52805;51.074;5.842;2023-02-15T00:39:18;4.58;77.96
66035;HTU21D;52805;51.074;5.842;2023-02-15T00:41:45;4.50;78.11
66035;HTU21D;52805;51.074;5.842;2023-02-15T00:44:12;4.46;78.24
66035;HTU21D;52805;51.074;5.842;2023-02-15T00:46:38;4.45;78.19
66035;HTU21D;52805;51.074;5.842;2023-02-15T00:49:04;4.43;78.14
66035;HTU21D;52805;51.074;5.842;2023-02-15T00:51:30;4.37;78.30
66035;HTU21D;52805;51.074;5.842;2023-02-15T00:53:56;4.35;78.30
66035;HTU21D;52805;51.074;5.842;2023-02-15T00:56:21;4.33;78.30
66035;HTU21D;52805;51.074;5.842;2023-02-15T00:58:47;4.34;78.20
66035;HTU21D;52805;51.074;5.842;2023-02-15T01:01:16;4.33;78.14
66035;HTU21D;52805;51.074;5.842;2023-02-15T01:03:44;4.33;78.09
66035;HTU21D;52805;51.074;5.842;2023-02-15T01:06:12;4.24;78.22
66035;HTU21D;52805;51.074;5.842;2023-02-15T01:08:39;4.18;78.50
66035;HTU21D;52805;51.074;5.842;2023-02-15T01:11:08;4.18;78.44
66035;HTU21D;52805;51.074;5.842;2023-02-15T01:13:34;4.20;78.19
66035;HTU21D;52805;51.074;5.842;2023-02-15T01:16:01;4.22;78.04
66035;HTU21D;52805;51.074;5.842;2023-02-15T01:18:27;4.20;78.01
66035;HTU21D;52805;51.074;5.842;2023-02-15T01:20:53;4.15;78.08
66035;HTU21D;52805;51.074;5.842;2023-02-15T01:23:19;4.14;78.13
66035;HTU21D;52805;51.074;5.842;2023-02-15T01:25:45;4.13;78.08
66035;HTU21D;52805;51.074;5.842;2023-02-15T01:28:11;4.13;78.05
66035;HTU21D;52805;51.074;5.842;2023-02-15T01:30:38;4.08;78.02
66035;HTU21D;52805;51.074;5.842;2023-02-15T01:33:04;4.05;78.19
66035;HTU21D;52805;51.074;5.842;2023-02-15T01:35:30;4.02;78.26
66035;HTU21D;52805;51.074;5.842;2023-02-15T01:37:56;3.98;78.31
66035;HTU21D;52805;51.074;5.842;2023-02-15T01:40:23;3.97;78.26
66035;HTU21D;52805;51.074;5.842;2023-02-15T01:42:54;3.94;78.15
66035;HTU21D;52805;51.074;5.842;2023-02-15T01:45:26;3.90;78.23
66035;HTU21D;52805;51.074;5.842;2023-02-15T01:50:43;3.84;78.47
66035;HTU21D;52805;51.074;5.842;2023-02-15T01:54:06;3.79;78.45
66035;HTU21D;52805;51.074;5.842;2023-02-15T01:56:12;3.80;78.24
66035;HTU21D;52805;51.074;5.842;2023-02-15T01:58:41;3.78;78.18
66035;HTU21D;52805;51.074;5.842;2023-02-15T02:01:08;3.78;78.05
66035;HTU21D;52805;51.074;5.842;2023-02-15T02:04:02;3.76;77.95
66035;HTU21D;52805;51.074;5.842;2023-02-15T02:06:33;3.69;78.27
66035;HTU21D;52805;51.074;5.842;2023-02-15T02:09:00;3.67;78.41
66035;HTU21D;52805;51.074;5.842;2023-02-15T02:11:26;3.67;78.45
66035;HTU21D;52805;51.074;5.842;2023-02-15T02:13:54;3.68;78.48
66035;HTU21D;52805;51.074;5.842;2023-02-15T02:16:48;3.67;78.63
66035;HTU21D;52805;51.074;5.842;2023-02-15T02:36:49;3.50;78.55
66035;HTU21D;52805;51.074;5.842;2023-02-15T02:42:18;3.53;78.40
66035;HTU21D;52805;51.074;5.842;2023-02-15T02:44:45;3.52;78.27
66035;HTU21D;52805;51.074;5.842;2023-02-15T02:47:23;3.47;78.31
66035;HTU21D;52805;51.074;5.842;2023-02-15T02:49:59;3.45;78.27
66035;HTU21D;52805;51.074;5.842;2023-02-15T02:52:38;3.44;78.18
66035;HTU21D;52805;51.074;5.842;2023-02-15T02:55:09;3.45;78.03
66035;HTU21D;52805;51.074;5.842;2023-02-15T02:57:46;3.41;78.02
66035;HTU21D;52805;51.074;5.842;2023-02-15T03:00:15;3.32;78.35
66035;HTU21D;52805;51.074;5.842;2023-02-15T03:02:45;3.33;78.36
66035;HTU21D;52805;51.074;5.842;2023-02-15T03:05:20;3.33;78.40
66035;HTU21D;52805;51.074;5.842;2023-02-15T03:07:51;3.34;78.27
66035;HTU21D;52805;51.074;5.842;2023-02-15T03:10:21;3.32;78.50
66035;HTU21D;52805;51.074;5.842;2023-02-15T03:12:51;3.31;78.59
66035;HTU21D;52805;51.074;5.842;2023-02-15T03:15:25;3.34;78.42
66035;HTU21D;52805;51.074;5.842;2023-02-15T03:17:59;3.35;78.28
66035;HTU21D;52805;51.074;5.842;2023-02-15T03:20:32;3.31;78.25
66035;HTU21D;52805;51.074;5.842;2023-02-15T03:23:10;3.20;78.65
66035;HTU21D;52805;51.074;5.842;2023-02-15T03:25:41;3.18;78.95
66035;HTU21D;52805;51.074;5.842;2023-02-15T03:28:15;3.20;78.87
66035;HTU21D;52805;51.074;5.842;2023-02-15T03:30:48;3.17;78.92
66035;HTU21D;52805;51.074;5.842;2023-02-15T03:33:18;3.17;78.82
66035;HTU21D;52805;51.074;5.842;2023-02-15T03:36:24;3.14;78.82
66035;HTU21D;52805;51.074;5.842;2023-02-15T03:39:15;3.11;79.01
66035;HTU21D;52805;51.074;5.842;2023-02-15T03:41:58;3.12;78.81
66035;HTU21D;52805;51.074;5.842;2023-02-15T03:44:30;3.08;78.87
66035;HTU21D;52805;51.074;5.842;2023-02-15T03:47:07;3.06;78.78
66035;HTU21D;52805;51.074;5.842;2023-02-15T03:52:14;3.03;78.75
66035;HTU21D;52805;51.074;5.842;2023-02-15T03:54:41;3.03;78.59
66035;HTU21D;52805;51.074;5.842;2023-02-15T03:57:21;3.03;78.43
66035;HTU21D;52805;51.074;5.842;2023-02-15T04:05:42;2.97;78.61
66035;HTU21D;52805;51.074;5.842;2023-02-15T04:08:10;2.98;78.62
66035;HTU21D;52805;51.074;5.842;2023-02-15T04:10:36;2.97;78.64
66035;HTU21D;52805;51.074;5.842;2023-02-15T04:13:32;2.96;78.74
66035;HTU21D;52805;51.074;5.842;2023-02-15T04:15:58;2.96;78.66
66035;HTU21D;52805;51.074;5.842;2023-02-15T04:18:35;2.95;78.70
66035;HTU21D;52805;51.074;5.842;2023-02-15T04:21:21;2.95;78.87
66035;HTU21D;52805;51.074;5.842;2023-02-15T04:24:07;2.96;78.77
66035;HTU21D;52805;51.074;5.842;2023-02-15T04:26:51;2.90;78.88
66035;HTU21D;52805;51.074;5.842;2023-02-15T04:29:23;2.87;79.06
66035;HTU21D;52805;51.074;5.842;2023-02-15T04:31:50;2.87;78.98
66035;HTU21D;52805;51.074;5.842;2023-02-15T04:34:16;2.89;78.84
66035;HTU21D;52805;51.074;5.842;2023-02-15T04:36:42;2.89;78.62
66035;HTU21D;52805;51.074;5.842;2023-02-15T04:39:09;2.87;78.61
66035;HTU21D;52805;51.074;5.842;2023-02-15T04:41:37;2.86;78.65
66035;HTU21D;52805;51.074;5.842;2023-02-15T04:44:03;2.87;78.72
66035;HTU21D;52805;51.074;5.842;2023-02-15T04:46:29;2.84;78.81
66035;HTU21D;52805;51.074;5.842;2023-02-15T04:48:55;2.82;78.87
66035;HTU21D;52805;51.074;5.842;2023-02-15T04:51:21;2.82;79.04
66035;HTU21D;52805;51.074;5.842;2023-02-15T04:53:47;2.79;79.24
66035;HTU21D;52805;51.074;5.842;2023-02-15T04:56:12;2.79;79.35
66035;HTU21D;52805;51.074;5.842;2023-02-15T04:58:38;2.80;79.36
66035;HTU21D;52805;51.074;5.842;2023-02-15T05:01:07;2.82;79.30
66035;HTU21D;52805;51.074;5.842;2023-02-15T05:03:34;2.83;79.40
66035;HTU21D;52805;51.074;5.842;2023-02-15T05:06:04;2.83;79.37
66035;HTU21D;52805;51.074;5.842;2023-02-15T05:08:30;2.81;79.37
66035;HTU21D;52805;51.074;5.842;2023-02-15T05:10:57;2.82;79.41
66035;HTU21D;52805;51.074;5.842;2023-02-15T05:13:24;2.83;79.42
66035;HTU21D;52805;51.074;5.842;2023-02-15T05:15:52;2.84;79.40
66035;HTU21D;52805;51.074;5.842;2023-02-15T05:18:20;2.85;79.39
66035;HTU21D;52805;51.074;5.842;2023-02-15T05:20:47;2.86;79.46
66035;HTU21D;52805;51.074;5.842;2023-02-15T05:23:13;2.87;79.46
66035;HTU21D;52805;51.074;5.842;2023-02-15T05:25:39;2.85;79.48
66035;HTU21D;52805;51.074;5.842;2023-02-15T05:28:27;2.83;79.42
66035;HTU21D;52805;51.074;5.842;2023-02-15T05:33:29;2.84;79.09
66035;HTU21D;52805;51.074;5.842;2023-02-15T05:35:54;2.83;78.81
66035;HTU21D;52805;51.074;5.842;2023-02-15T05:38:20;2.80;78.95
66035;HTU21D;52805;51.074;5.842;2023-02-15T05:40:46;2.75;79.24
66035;HTU21D;52805;51.074;5.842;2023-02-15T05:43:12;2.74;79.35
66035;HTU21D;52805;51.074;5.842;2023-02-15T05:45:37;2.75;79.25
66035;HTU21D;52805;51.074;5.842;2023-02-15T05:48:03;2.75;79.17
66035;HTU21D;52805;51.074;5.842;2023-02-15T05:50:29;2.70;79.24
66035;HTU21D;52805;51.074;5.842;2023-02-15T05:52:54;2.71;79.33
66035;HTU21D;52805;51.074;5.842;2023-02-15T05:55:20;2.70;79.24
66035;HTU21D;52805;51.074;5.842;2023-02-15T05:57:46;2.71;79.21
66035;HTU21D;52805;51.074;5.842;2023-02-15T06:00:12;2.71;79.11
66035;HTU21D;52805;51.074;5.842;2023-02-15T06:02:39;2.69;79.10
66035;HTU21D;52805;51.074;5.842;2023-02-15T06:05:05;2.68;79.11
66035;HTU21D;52805;51.074;5.842;2023-02-15T06:07:31;2.69;78.99
66035;HTU21D;52805;51.074;5.842;2023-02-15T06:09:57;2.66;78.97
66035;HTU21D;52805;51.074;5.842;2023-02-15T06:12:23;2.65;79.01
66035;HTU21D;52805;51.074;5.842;2023-02-15T06:14:49;2.64;79.19
66035;HTU21D;52805;51.074;5.842;2023-02-15T06:17:15;2.60;79.17
66035;HTU21D;52805;51.074;5.842;2023-02-15T06:19:42;2.59;79.24
66035;HTU21D;52805;51.074;5.842;2023-02-15T06:22:08;2.61;79.36
66035;HTU21D;52805;51.074;5.842;2023-02-15T06:24:33;2.57;79.41
66035;HTU21D;52805;51.074;5.842;2023-02-15T06:26:59;2.56;79.43
66035;HTU21D;52805;51.074;5.842;2023-02-15T06:29:25;2.54;79.39
66035;HTU21D;52805;51.074;5.842;2023-02-15T06:31:51;2.52;79.34
66035;HTU21D;52805;51.074;5.842;2023-02-15T06:34:16;2.52;79.33
66035;HTU21D;52805;51.074;5.842;2023-02-15T06:36:42;2.50;79.24
66035;HTU21D;52805;51.074;5.842;2023-02-15T06:39:08;2.49;79.03
66035;HTU21D;52805;51.074;5.842;2023-02-15T06:41:34;2.44;79.10
66035;HTU21D;52805;51.074;5.842;2023-02-15T06:43:59;2.49;78.98
66035;HTU21D;52805;51.074;5.842;2023-02-15T06:46:25;2.46;78.87
66035;HTU21D;52805;51.074;5.842;2023-02-15T06:48:51;2.45;78.93
66035;HTU21D;52805;51.074;5.842;2023-02-15T06:51:17;2.46;78.96
66035;HTU21D;52805;51.074;5.842;2023-02-15T06:53:42;2.43;79.08
66035;HTU21D;52805;51.074;5.842;2023-02-15T06:56:09;2.43;79.15
66035;HTU21D;52805;51.074;5.842;2023-02-15T06:58:36;2.43;79.15
66035;HTU21D;52805;51.074;5.842;2023-02-15T07:01:03;2.44;79.12
66035;HTU21D;52805;51.074;5.842;2023-02-15T07:03:29;2.45;79.25
66035;HTU21D;52805;51.074;5.842;2023-02-15T07:05:56;2.47;79.27
66035;HTU21D;52805;51.074;5.842;2023-02-15T07:08:23;2.46;79.39
66035;HTU21D;52805;51.074;5.842;2023-02-15T07:10:52;2.46;79.46
66035;HTU21D;52805;51.074;5.842;2023-02-15T07:13:18;2.49;79.51
66035;HTU21D;52805;51.074;5.842;2023-02-15T07:15:45;2.50;79.53
66035;HTU21D;52805;51.074;5.842;2023-02-15T07:18:11;2.50;79.54
66035;HTU21D;52805;51.074;5.842;2023-02-15T07:20:38;2.51;79.64
66035;HTU21D;52805;51.074;5.842;2023-02-15T07:23:04;2.55;79.69
66035;HTU21D;52805;51.074;5.842;2023-02-15T07:25:30;2.59;79.59
66035;HTU21D;52805;51.074;5.842;2023-02-15T07:28:02;2.65;79.49
66035;HTU21D;52805;51.074;5.842;2023-02-15T07:30:29;2.68;79.46
66035;HTU21D;52805;51.074;5.842;2023-02-15T07:32:56;2.72;79.47
66035;HTU21D;52805;51.074;5.842;2023-02-15T07:35:50;2.78;79.46
66035;HTU21D;52805;51.074;5.842;2023-02-15T07:38:17;2.80;79.45
66035;HTU21D;52805;51.074;5.842;2023-02-15T07:40:44;2.81;79.51
66035;HTU21D;52805;51.074;5.842;2023-02-15T07:43:11;2.84;79.43
66035;HTU21D;52805;51.074;5.842;2023-02-15T07:45:37;2.86;79.49
66035;HTU21D;52805;51.074;5.842;2023-02-15T07:48:04;2.88;79.55
66035;HTU21D;52805;51.074;5.842;2023-02-15T07:50:31;2.88;79.63
66035;HTU21D;52805;51.074;5.842;2023-02-15T07:52:57;2.91;79.58
66035;HTU21D;52805;51.074;5.842;2023-02-15T07:55:24;2.95;79.69
66035;HTU21D;52805;51.074;5.842;2023-02-15T07:57:50;3.00;79.72
66035;HTU21D;52805;51.074;5.842;2023-02-15T08:00:19;3.08;79.76
66035;HTU21D;52805;51.074;5.842;2023-02-15T08:02:51;3.13;79.78
66035;HTU21D;52805;51.074;5.842;2023-02-15T08:05:39;3.18;79.85
66035;HTU21D;52805;51.074;5.842;2023-02-15T08:08:06;3.26;79.93
66035;HTU21D;52805;51.074;5.842;2023-02-15T08:10:33;3.32;79.89
66035;HTU21D;52805;51.074;5.842;2023-02-15T08:13:17;3.39;79.91
66035;HTU21D;52805;51.074;5.842;2023-02-15T08:15:50;3.45;79.91
66035;HTU21D;52805;51.074;5.842;2023-02-15T08:18:16;3.52;79.85
66035;HTU21D;52805;51.074;5.842;2023-02-15T08:20:41;3.59;79.93
66035;HTU21D;52805;51.074;5.842;2023-02-15T08:23:07;3.65;79.87
66035;HTU21D;52805;51.074;5.842;2023-02-15T08:25:33;3.73;79.86
66035;HTU21D;52805;51.074;5.842;2023-02-15T08:27:58;3.80;79.88
66035;HTU21D;52805;51.074;5.842;2023-02-15T08:30:24;3.89;79.76
66035;HTU21D;52805;51.074;5.842;2023-02-15T08:32:50;3.95;79.69
66035;HTU21D;52805;51.074;5.842;2023-02-15T08:35:16;4.02;79.74
66035;HTU21D;52805;51.074;5.842;2023-02-15T08:37:41;4.07;79.73
66035;HTU21D;52805;51.074;5.842;2023-02-15T08:40:07;4.16;79.71
66035;HTU21D;52805;51.074;5.842;2023-02-15T08:42:33;4.24;79.71
66035;HTU21D;52805;51.074;5.842;2023-02-15T08:45:00;4.34;79.59
66035;HTU21D;52805;51.074;5.842;2023-02-15T08:47:26;4.43;79.49
66035;HTU21D;52805;51.074;5.842;2023-02-15T08:49:51;4.50;79.38
66035;HTU21D;52805;51.074;5.842;2023-02-15T08:52:17;4.59;79.33
66035;HTU21D;52805;51.074;5.842;2023-02-15T08:54:43;4.67;79.24
66035;HTU21D;52805;51.074;5.842;2023-02-15T08:57:08;4.76;79.07
66035;HTU21D;52805;51.074;5.842;2023-02-15T08:59:35;4.83;79.01
66035;HTU21D;52805;51.074;5.842;2023-02-15T09:02:01;4.95;78.92
66035;HTU21D;52805;51.074;5.842;2023-02-15T09:04:28;5.03;78.77
66035;HTU21D;52805;51.074;5.842;2023-02-15T09:06:54;5.10;78.63
66035;HTU21D;52805;51.074;5.842;2023-02-15T09:09:21;5.17;78.50
66035;HTU21D;52805;51.074;5.842;2023-02-15T09:11:50;5.23;78.35
66035;HTU21D;52805;51.074;5.842;2023-02-15T09:14:18;5.30;78.29
66035;HTU21D;52805;51.074;5.842;2023-02-15T09:16:47;5.36;78.23
66035;HTU21D;52805;51.074;5.842;2023-02-15T09:19:15;5.43;78.18
66035;HTU21D;52805;51.074;5.842;2023-02-15T09:21:42;5.51;78.11
66035;HTU21D;52805;51.074;5.842;2023-02-15T09:24:11;5.60;77.95
66035;HTU21D;52805;51.074;5.842;2023-02-15T09:26:40;5.66;77.83
66035;HTU21D;52805;51.074;5.842;2023-02-15T09:29:07;5.72;77.66
66035;HTU21D;52805;51.074;5.842;2023-02-15T09:31:42;5.80;77.50
66035;HTU21D;52805;51.074;5.842;2023-02-15T09:34:10;5.87;77.52
66035;HTU21D;52805;51.074;5.842;2023-02-15T09:36:38;5.95;77.44
66035;HTU21D;52805;51.074;5.842;2023-02-15T10:00:47;6.65;76.56
66035;HTU21D;52805;51.074;5.842;2023-02-15T10:14:43;7.16;75.94
66035;HTU21D;52805;51.074;5.842;2023-02-15T10:17:36;7.27;75.67
66035;HTU21D;52805;51.074;5.842;2023-02-15T10:25:49;7.60;75.18
66035;HTU21D;52805;51.074;5.842;2023-02-15T10:28:26;7.72;75.11
66035;HTU21D;52805;51.074;5.842;2023-02-15T10:31:05;7.79;74.87
66035;HTU21D;52805;51.074;5.842;2023-02-15T10:33:42;7.90;74.57
66035;HTU21D;52805;51.074;5.842;2023-02-15T10:39:07;8.09;74.35
66035;HTU21D;52805;51.074;5.842;2023-02-15T10:45:15;8.39;73.96
66035;HTU21D;52805;51.074;5.842;2023-02-15T10:47:48;8.49;73.91
66035;HTU21D;52805;51.074;5.842;2023-02-15T10:52:59;8.71;73.47
66035;HTU21D;52805;51.074;5.842;2023-02-15T11:06:58;9.27;72.33
66035;HTU21D;52805;51.074;5.842;2023-02-15T11:09:33;9.37;72.14
66035;HTU21D;52805;51.074;5.842;2023-02-15T11:12:07;9.46;72.08
66035;HTU21D;52805;51.074;5.842;2023-02-15T11:17:30;9.69;71.92
66035;HTU21D;52805;51.074;5.842;2023-02-15T11:22:51;10.03;71.44
66035;HTU21D;52805;51.074;5.842;2023-02-15T11:25:32;10.20;70.90
66035;HTU21D;52805;51.074;5.842;2023-02-15T11:28:03;10.38;70.32
66035;HTU21D;52805;51.074;5.842;2023-02-15T11:30:47;10.58;69.74
66035;HTU21D;52805;51.074;5.842;2023-02-15T11:33:31;10.78;68.65
66035;HTU21D;52805;51.074;5.842;2023-02-15T11:36:07;10.98;67.21
66035;HTU21D;52805;51.074;5.842;2023-02-15T11:38:36;11.16;66.40
66035;HTU21D;52805;51.074;5.842;2023-02-15T11:41:11;11.34;65.46
66035;HTU21D;52805;51.074;5.842;2023-02-15T11:46:13;11.63;64.18
66035;HTU21D;52805;51.074;5.842;2023-02-15T11:48:41;11.76;63.69
66035;HTU21D;52805;51.074;5.842;2023-02-15T11:51:14;11.89;63.04
66035;HTU21D;52805;51.074;5.842;2023-02-15T11:53:43;12.01;62.79
66035;HTU21D;52805;51.074;5.842;2023-02-15T11:56:19;12.16;61.83
66035;HTU21D;52805;51.074;5.842;2023-02-15T11:58:47;12.25;61.43
66035;HTU21D;52805;51.074;5.842;2023-02-15T12:01:36;12.30;61.21
66035;HTU21D;52805;51.074;5.842;2023-02-15T12:06:44;12.55;61.18
66035;HTU21D;52805;51.074;5.842;2023-02-15T12:11:52;12.71;60.55
66035;HTU21D;52805;51.074;5.842;2023-02-15T12:14:18;12.79;60.10
66035;HTU21D;52805;51.074;5.842;2023-02-15T12:16:47;12.89;59.80
66035;HTU21D;52805;51.074;5.842;2023-02-15T12:19:33;13.00;59.03
66035;HTU21D;52805;51.074;5.842;2023-02-15T12:22:04;13.07;58.92
66035;HTU21D;52805;51.074;5.842;2023-02-15T12:24:38;13.16;58.70
66035;HTU21D;52805;51.074;5.842;2023-02-15T12:27:25;13.23;58.31
66035;HTU21D;52805;51.074;5.842;2023-02-15T12:30:18;13.33;58.30
66035;HTU21D;52805;51.074;5.842;2023-02-15T12:32:53;13.44;58.40
66035;HTU21D;52805;51.074;5.842;2023-02-15T12:35:30;13.52;58.02
66035;HTU21D;52805;51.074;5.842;2023-02-15T12:38:23;13.60;57.47
66035;HTU21D;52805;51.074;5.842;2023-02-15T12:41:04;13.66;57.16
66035;HTU21D;52805;51.074;5.842;2023-02-15T12:43:38;13.75;56.40
66035;HTU21D;52805;51.074;5.842;2023-02-15T12:46:25;13.79;56.36
66035;HTU21D;52805;51.074;5.842;2023-02-15T12:49:33;13.88;56.11
66035;HTU21D;52805;51.074;5.842;2023-02-15T12:52:02;13.97;55.49
66035;HTU21D;52805;51.074;5.842;2023-02-15T12:54:32;14.01;55.15
66035;HTU21D;52805;51.074;5.842;2023-02-15T12:57:23;14.08;54.94
66035;HTU21D;52805;51.074;5.842;2023-02-15T12:59:53;14.19;54.68
66035;HTU21D;52805;51.074;5.842;2023-02-15T13:02:31;14.24;54.81
66035;HTU21D;52805;51.074;5.842;2023-02-15T13:05:14;14.38;53.84
66035;HTU21D;52805;51.074;5.842;2023-02-15T13:07:51;14.41;53.94
66035;HTU21D;52805;51.074;5.842;2023-02-15T13:10:28;14.51;53.60
66035;HTU21D;52805;51.074;5.842;2023-02-15T13:12:55;14.57;53.56
66035;HTU21D;52805;51.074;5.842;2023-02-15T13:15:38;14.64;53.13
66035;HTU21D;52805;51.074;5.842;2023-02-15T13:18:16;14.65;52.99
66035;HTU21D;52805;51.074;5.842;2023-02-15T13:20:44;14.67;52.59
66035;HTU21D;52805;51.074;5.842;2023-02-15T13:23:26;14.66;52.78
66035;HTU21D;52805;51.074;5.842;2023-02-15T13:26:04;14.66;52.46
66035;HTU21D;52805;51.074;5.842;2023-02-15T13:28:42;14.68;52.17
66035;HTU21D;52805;51.074;5.842;2023-02-15T13:31:20;14.71;52.07
66035;HTU21D;52805;51.074;5.842;2023-02-15T13:36:54;14.83;51.89
66035;HTU21D;52805;51.074;5.842;2023-02-15T13:55:56;14.93;51.31
66035;HTU21D;52805;51.074;5.842;2023-02-15T14:01:20;14.80;51.56
66035;HTU21D;52805;51.074;5.842;2023-02-15T14:18:27;14.74;52.62
66035;HTU21D;52805;51.074;5.842;2023-02-15T14:24:01;14.79;52.88
66035;HTU21D;52805;51.074;5.842;2023-02-15T14:32:43;14.95;52.85
66035;HTU21D;52805;51.074;5.842;2023-02-15T14:35:30;14.97;52.60
66035;HTU21D;52805;51.074;5.842;2023-02-15T14:44:07;15.00;52.73
66035;HTU21D;52805;51.074;5.842;2023-02-15T14:46:50;14.97;52.75
66035;HTU21D;52805;51.074;5.842;2023-02-15T14:49:35;14.96;52.62
66035;HTU21D;52805;51.074;5.842;2023-02-15T14:52:12;14.91;52.36
66035;HTU21D;52805;51.074;5.842;2023-02-15T14:59:54;14.75;52.46
66035;HTU21D;52805;51.074;5.842;2023-02-15T15:05:16;14.60;52.78
66035;HTU21D;52805;51.074;5.842;2023-02-15T15:07:56;14.56;53.05
66035;HTU21D;52805;51.074;5.842;2023-02-15T15:12:56;14.45;53.54
66035;HTU21D;52805;51.074;5.842;2023-02-15T15:15:45;14.42;53.71
66035;HTU21D;52805;51.074;5.842;2023-02-15T15:18:52;14.37;53.88
66035;HTU21D;52805;51.074;5.842;2023-02-15T15:27:42;14.22;54.52
66035;HTU21D;52805;51.074;5.842;2023-02-15T15:41:43;13.95;55.59
66035;HTU21D;52805;51.074;5.842;2023-02-15T15:47:28;13.80;56.30
66035;HTU21D;52805;51.074;5.842;2023-02-15T15:49:59;13.75;56.81
66035;HTU21D;52805;51.074;5.842;2023-02-15T15:52:26;13.69;57.24
66035;HTU21D;52805;51.074;5.842;2023-02-15T15:55:03;13.63;57.55
66035;HTU21D;52805;51.074;5.842;2023-02-15T15:57:40;13.60;57.75
66035;HTU21D;52805;51.074;5.842;2023-02-15T16:00:30;13.52;57.93
66035;HTU21D;52805;51.074;5.842;2023-02-15T16:02:57;13.47;58.08
66035;HTU21D;52805;51.074;5.842;2023-02-15T16:05:23;13.43;58.15
66035;HTU21D;52805;51.074;5.842;2023-02-15T16:07:49;13.36;58.24
66035;HTU21D;52805;51.074;5.842;2023-02-15T16:10:28;13.34;58.33
66035;HTU21D;52805;51.074;5.842;2023-02-15T16:12:55;13.30;58.33
66035;HTU21D;52805;51.074;5.842;2023-02-15T16:15:34;13.24;58.42
66035;HTU21D;52805;51.074;5.842;2023-02-15T16:18:00;13.21;58.43
66035;HTU21D;52805;51.074;5.842;2023-02-15T16:20:36;13.19;58.48
66035;HTU21D;52805;51.074;5.842;2023-02-15T16:28:34;13.04;58.87
66035;HTU21D;52805;51.074;5.842;2023-02-15T16:31:12;12.99;59.06
66035;HTU21D;52805;51.074;5.842;2023-02-15T16:33:40;12.93;59.28
66035;HTU21D;52805;51.074;5.842;2023-02-15T16:36:12;12.90;59.61
66035;HTU21D;52805;51.074;5.842;2023-02-15T16:41:23;12.77;59.98
66035;HTU21D;52805;51.074;5.842;2023-02-15T16:43:53;12.73;60.05
66035;HTU21D;52805;51.074;5.842;2023-02-15T16:46:27;12.65;60.22
66035;HTU21D;52805;51.074;5.842;2023-02-15T16:49:00;12.57;60.37
66035;HTU21D;52805;51.074;5.842;2023-02-15T16:51:31;12.52;60.47
66035;HTU21D;52805;51.074;5.842;2023-02-15T16:54:07;12.46;60.64
66035;HTU21D;52805;51.074;5.842;2023-02-15T16:56:34;12.41;60.66
66035;HTU21D;52805;51.074;5.842;2023-02-15T16:59:02;12.37;60.73
66035;HTU21D;52805;51.074;5.842;2023-02-15T17:01:31;12.32;60.82
66035;HTU21D;52805;51.074;5.842;2023-02-15T17:07:32;12.26;60.89
66035;HTU21D;52805;51.074;5.842;2023-02-15T17:09:53;12.19;61.05
66035;HTU21D;52805;51.074;5.842;2023-02-15T17:12:52;12.13;61.29
66035;HTU21D;52805;51.074;5.842;2023-02-15T17:17:50;12.05;61.46
66035;HTU21D;52805;51.074;5.842;2023-02-15T17:20:19;12.03;61.50
66035;HTU21D;52805;51.074;5.842;2023-02-15T17:22:46;11.99;61.62
66035;HTU21D;52805;51.074;5.842;2023-02-15T17:25:26;11.93;61.76
66035;HTU21D;52805;51.074;5.842;2023-02-15T17:27:55;11.88;61.89
66035;HTU21D;52805;51.074;5.842;2023-02-15T17:30:32;11.79;62.05
66035;HTU21D;52805;51.074;5.842;2023-02-15T17:33:01;11.75;62.13
66035;HTU21D;52805;51.074;5.842;2023-02-15T17:35:32;11.67;62.34
66035;HTU21D;52805;51.074;5.842;2023-02-15T17:38:21;11.59;62.66
66035;HTU21D;52805;51.074;5.842;2023-02-15T17:40:47;11.53;62.86
66035;HTU21D;52805;51.074;5.842;2023-02-15T17:43:12;11.48;62.98
66035;HTU21D;52805;51.074;5.842;2023-02-15T17:45:48;11.45;63.09
66035;HTU21D;52805;51.074;5.842;2023-02-15T17:48:32;11.41;63.19
66035;HTU21D;52805;51.074;5.842;2023-02-15T17:51:00;11.38;63.34
66035;HTU21D;52805;51.074;5.842;2023-02-15T17:53:29;11.32;63.40
66035;HTU21D;52805;51.074;5.842;2023-02-15T17:55:55;11.29;63.45
66035;HTU21D;52805;51.074;5.842;2023-02-15T17:58:21;11.24;63.65
66035;HTU21D;52805;51.074;5.842;2023-02-15T18:01:00;11.17;63.80
66035;HTU21D;52805;51.074;5.842;2023-02-15T18:03:48;11.12;63.99
66035;HTU21D;52805;51.074;5.842;2023-02-15T18:06:35;11.08;64.22
66035;HTU21D;52805;51.074;5.842;2023-02-15T18:09:21;11.05;64.40
66035;HTU21D;52805;51.074;5.842;2023-02-15T18:12:28;11.00;64.55
66035;HTU21D;52805;51.074;5.842;2023-02-15T18:14:55;10.99;64.59
66035;HTU21D;52805;51.074;5.842;2023-02-15T18:17:37;10.99;64.65
66035;HTU21D;52805;51.074;5.842;2023-02-15T18:20:14;11.00;64.69
66035;HTU21D;52805;51.074;5.842;2023-02-15T18:22:43;11.00;64.70
66035;HTU21D;52805;51.074;5.842;2023-02-15T18:25:18;11.01;64.66
66035;HTU21D;52805;51.074;5.842;2023-02-15T18:27:44;10.99;64.66
66035;HTU21D;52805;51.074;5.842;2023-02-15T18:30:19;10.92;64.91
66035;HTU21D;52805;51.074;5.842;2023-02-15T18:32:47;10.85;65.15
66035;HTU21D;52805;51.074;5.842;2023-02-15T18:35:21;10.83;65.27
66035;HTU21D;52805;51.074;5.842;2023-02-15T18:37:48;10.80;65.40
66035;HTU21D;52805;51.074;5.842;2023-02-15T18:40:17;10.80;65.44
66035;HTU21D;52805;51.074;5.842;2023-02-15T18:42:43;10.79;65.58
66035;HTU21D;52805;51.074;5.842;2023-02-15T18:47:45;10.80;65.56
66035;HTU21D;52805;51.074;5.842;2023-02-15T18:50:13;10.78;65.71
66035;HTU21D;52805;51.074;5.842;2023-02-15T18:52:40;10.74;65.75
66035;HTU21D;52805;51.074;5.842;2023-02-15T18:55:17;10.72;65.80
66035;HTU21D;52805;51.074;5.842;2023-02-15T18:57:45;10.71;65.88
66035;HTU21D;52805;51.074;5.842;2023-02-15T19:00:24;10.68;65.94
66035;HTU21D;52805;51.074;5.842;2023-02-15T19:02:50;10.67;66.04
66035;HTU21D;52805;51.074;5.842;2023-02-15T19:05:16;10.66;66.15
66035;HTU21D;52805;51.074;5.842;2023-02-15T19:07:45;10.65;66.24
66035;HTU21D;52805;51.074;5.842;2023-02-15T19:10:23;10.63;66.32
66035;HTU21D;52805;51.074;5.842;2023-02-15T19:12:50;10.58;66.48
66035;HTU21D;52805;51.074;5.842;2023-02-15T19:15:20;10.56;66.64
66035;HTU21D;52805;51.074;5.842;2023-02-15T19:17:46;10.54;66.83